Time,TemperatureF,DewpointF,PressureIn,WindDirection,WindDirectionDegrees,WindSpeedMPH,WindSpeedGustMPH,Humidity,HourlyPrecipIn,Conditions,Clouds,dailyrainin,SoftwareType,DateUTC
2013-01-01 00:00:00,68.5,62.5,30.14,South,189,0.0,0.0,81,0.08,,,0.00,Weather View 32 v70,2013-01-01 10:00:00,
2013-01-01 00:10:00,68.5,63.2,30.14,NNE,21,0.0,0.0,83,0.00,,,0.00,Weather View 32 v70,2013-01-01 10:10:00,
2013-01-01 00:15:00,68.4,63.7,30.14,NNE,30,0.0,0.0,85,0.08,,,0.08,Weather View 32 v70,2013-01-01 10:15:00,
2013-01-01 00:20:00,68.2,63.8,30.11,East,79,0.0,0.0,86,0.08,,,0.08,Weather View 32 v70,2013-01-01 10:20:00,
2013-01-01 00:25:00,67.6,63.3,30.11,NE,40,0.0,0.0,86,0.08,,,0.08,Weather View 32 v70,2013-01-01 10:25:00,
2013-01-01 00:35:00,67.6,63.6,30.11,ENE,67,0.0,0.0,87,0.08,,,0.08,Weather View 32 v70,2013-01-01 10:35:00,
2013-01-01 00:40:00,67.8,64.4,30.11,SSW,195,0.0,0.0,89,0.08,,,0.08,Weather View 32 v70,2013-01-01 10:40:00,
2013-01-01 00:45:00,68.0,64.3,30.11,SSW,196,0.0,0.0,88,0.08,,,0.08,Weather View 32 v70,2013-01-01 10:45:00,
2013-01-01 00:50:00,68.0,64.3,30.11,SSW,196,0.0,0.0,88,0.08,,,0.08,Weather View 32 v70,2013-01-01 10:50:00,
2013-01-01 01:00:00,68.2,64.8,30.11,WNW,298,0.0,0.0,89,0.08,,,0.08,Weather View 32 v70,2013-01-01 11:00:00,
2013-01-01 01:05:00,68.2,65.1,30.11,NE,51,0.0,0.0,90,0.08,,,0.08,Weather View 32 v70,2013-01-01 11:05:00,
2013-01-01 01:10:00,68.4,65.3,30.11,NE,42,0.0,0.0,90,0.08,,,0.08,Weather View 32 v70,2013-01-01 11:10:00,
2013-01-01 01:15:00,68.4,65.3,30.11,NE,55,0.0,0.0,90,0.00,,,0.08,Weather View 32 v70,2013-01-01 11:15:00,
2013-01-01 01:25:00,68.7,66.0,30.11,NE,34,0.0,0.0,91,0.00,,,0.08,Weather View 32 v70,2013-01-01 11:25:00,
2013-01-01 01:30:00,68.7,66.3,30.11,ENE,57,0.0,0.0,92,0.00,,,0.08,Weather View 32 v70,2013-01-01 11:30:00,
2013-01-01 01:35:00,68.7,66.0,30.11,ENE,58,0.0,0.0,91,0.00,,,0.08,Weather View 32 v70,2013-01-01 11:35:00,
2013-01-01 01:45:00,69.3,66.8,30.11,North,8,0.0,0.0,92,0.00,,,0.08,Weather View 32 v70,2013-01-01 11:45:00,
2013-01-01 01:55:00,69.3,66.8,30.11,East,80,0.0,0.0,92,0.00,,,0.08,Weather View 32 v70,2013-01-01 11:55:00,
2013-01-01 02:00:00,69.1,66.3,30.11,East,101,0.0,0.0,91,0.00,,,0.08,Weather View 32 v70,2013-01-01 12:00:00,
2013-01-01 02:05:00,69.3,66.2,30.11,ENE,73,0.0,0.0,90,0.00,,,0.08,Weather View 32 v70,2013-01-01 12:05:00,
2013-01-01 02:10:00,69.3,66.2,30.11,NE,42,0.0,0.0,90,0.00,,,0.08,Weather View 32 v70,2013-01-01 12:10:00,
2013-01-01 02:20:00,69.4,65.4,30.11,East,80,0.0,0.0,87,0.00,,,0.08,Weather View 32 v70,2013-01-01 12:20:00,
2013-01-01 02:25:00,69.8,65.7,30.11,NE,49,0.0,0.0,87,0.00,,,0.08,Weather View 32 v70,2013-01-01 12:25:00,
2013-01-01 02:30:00,69.8,65.4,30.11,NNE,25,0.0,0.0,86,0.00,,,0.08,Weather View 32 v70,2013-01-01 12:30:00,
2013-01-01 02:35:00,70.0,65.2,30.11,East,98,0.0,0.0,85,0.00,,,0.08,Weather View 32 v70,2013-01-01 12:35:00,
2013-01-01 02:40:00,70.0,65.2,30.11,ESE,108,0.0,0.0,85,0.00,,,0.08,Weather View 32 v70,2013-01-01 12:40:00,
2013-01-01 02:50:00,70.0,65.2,30.11,ESE,123,0.0,0.0,85,0.00,,,0.08,Weather View 32 v70,2013-01-01 12:50:00,
2013-01-01 02:55:00,70.0,64.9,30.11,East,96,0.0,0.0,84,0.00,,,0.08,Weather View 32 v70,2013-01-01 12:55:00,
2013-01-01 03:00:00,70.2,65.4,30.11,ENE,61,0.0,0.0,85,0.00,,,0.08,Weather View 32 v70,2013-01-01 13:00:00,
2013-01-01 03:05:00,70.0,65.2,30.11,NE,44,0.0,0.0,85,0.00,,,0.08,Weather View 32 v70,2013-01-01 13:05:00,
2013-01-01 03:15:00,69.8,64.7,30.11,NE,46,0.0,0.0,84,0.04,,,0.12,Weather View 32 v70,2013-01-01 13:15:00,
2013-01-01 03:20:00,69.6,65.6,30.11,East,93,0.0,0.0,87,0.04,,,0.12,Weather View 32 v70,2013-01-01 13:20:00,
2013-01-01 03:25:00,69.4,65.4,30.11,NE,44,0.0,0.0,87,0.04,,,0.12,Weather View 32 v70,2013-01-01 13:25:00,
2013-01-01 03:30:00,69.4,64.7,30.11,NE,43,0.0,0.0,85,0.04,,,0.12,Weather View 32 v70,2013-01-01 13:30:00,
2013-01-01 03:40:00,69.3,62.1,30.11,NE,40,0.0,0.0,78,0.04,,,0.12,Weather View 32 v70,2013-01-01 13:40:00,
2013-01-01 03:45:00,69.4,61.9,30.11,ENE,62,0.0,0.0,77,0.04,,,0.12,Weather View 32 v70,2013-01-01 13:45:00,
2013-01-01 03:50:00,69.3,61.3,30.11,NNE,13,0.0,0.0,76,0.04,,,0.12,Weather View 32 v70,2013-01-01 13:50:00,
2013-01-01 03:55:00,69.4,61.5,30.11,NNE,33,0.0,0.0,76,0.04,,,0.12,Weather View 32 v70,2013-01-01 13:55:00,
2013-01-01 04:00:00,69.6,60.6,30.11,NE,54,0.0,0.0,73,0.04,,,0.12,Weather View 32 v70,2013-01-01 14:00:00,
2013-01-01 04:10:00,69.6,59.4,30.11,NE,42,0.0,0.0,70,0.00,,,0.12,Weather View 32 v70,2013-01-01 14:10:00,
2013-01-01 04:15:00,69.6,60.2,30.11,NE,49,0.0,0.0,72,0.00,,,0.12,Weather View 32 v70,2013-01-01 14:15:00,
2013-01-01 04:20:00,69.4,58.4,30.11,NE,39,0.0,0.0,68,0.00,,,0.12,Weather View 32 v70,2013-01-01 14:20:00,
2013-01-01 04:25:00,69.3,57.4,30.11,North,0,0.0,0.0,66,0.00,,,0.12,Weather View 32 v70,2013-01-01 14:25:00,
2013-01-01 04:35:00,69.3,57.4,30.11,ENE,58,0.0,0.0,66,0.00,,,0.12,Weather View 32 v70,2013-01-01 14:35:00,
2013-01-01 04:40:00,69.3,57.0,30.11,NNE,23,4.0,13.0,65,0.00,,,0.12,Weather View 32 v70,2013-01-01 14:40:00,
2013-01-01 04:45:00,69.1,55.0,30.11,NNE,31,0.0,13.0,61,0.00,,,0.12,Weather View 32 v70,2013-01-01 14:45:00,
2013-01-01 04:54:00,69.1,53.6,30.11,North,4,8.0,13.0,58,0.00,,,0.12,Weather View 32 v70,2013-01-01 14:54:00,
2013-01-01 05:00:00,69.3,53.3,30.11,ENE,76,7.0,13.0,57,0.00,,,0.12,Weather View 32 v70,2013-01-01 15:00:00,
2013-01-01 05:05:00,69.3,54.3,30.11,ENE,74,8.0,13.0,59,0.00,,,0.12,Weather View 32 v70,2013-01-01 15:05:00,
2013-01-01 05:10:00,69.4,54.4,30.11,NE,37,10.0,13.0,59,0.00,,,0.12,Weather View 32 v70,2013-01-01 15:10:00,
2013-01-01 05:15:00,69.1,53.2,30.11,ESE,106,8.0,13.0,57,0.00,,,0.12,Weather View 32 v70,2013-01-01 15:15:00,
2013-01-01 05:25:00,69.1,49.6,30.11,NE,54,10.0,14.0,50,0.00,,,0.12,Weather View 32 v70,2013-01-01 15:25:00,
2013-01-01 05:30:00,69.4,50.5,30.11,ENE,59,11.0,14.0,51,0.00,,,0.12,Weather View 32 v70,2013-01-01 15:30:00,
2013-01-01 05:35:00,69.4,52.5,30.14,NE,50,3.0,14.0,55,0.00,,,0.12,Weather View 32 v70,2013-01-01 15:35:00,
2013-01-01 05:40:00,69.4,53.0,30.14,NNE,32,6.0,14.0,56,0.00,,,0.12,Weather View 32 v70,2013-01-01 15:40:00,
2013-01-01 05:50:00,69.3,51.9,30.14,NE,35,10.0,14.0,54,0.00,,,0.12,Weather View 32 v70,2013-01-01 15:50:00,
2013-01-01 05:55:00,69.3,52.8,30.14,NNE,31,6.0,14.0,56,0.00,,,0.12,Weather View 32 v70,2013-01-01 15:55:00,
2013-01-01 06:00:00,69.3,52.8,30.14,NE,35,9.0,17.0,56,0.00,,,0.12,Weather View 32 v70,2013-01-01 16:00:00,
2013-01-01 06:05:00,69.4,54.0,30.14,ENE,62,8.0,17.0,58,0.00,,,0.12,Weather View 32 v70,2013-01-01 16:05:00,
2013-01-01 06:14:00,68.9,51.0,30.14,NNE,27,8.0,17.0,53,0.00,,,0.12,Weather View 32 v70,2013-01-01 16:14:00,
2013-01-01 06:20:00,68.9,52.5,30.14,NNE,18,4.0,17.0,56,0.00,,,0.12,Weather View 32 v70,2013-01-01 16:20:00,
2013-01-01 06:25:00,68.7,51.9,30.14,North,4,9.0,17.0,55,0.00,,,0.12,Weather View 32 v70,2013-01-01 16:25:00,
2013-01-01 06:34:00,68.7,51.9,30.14,ENE,68,13.0,17.0,55,0.00,,,0.12,Weather View 32 v70,2013-01-01 16:34:00,
2013-01-01 06:39:00,68.5,51.2,30.14,NE,43,4.0,17.0,54,0.00,,,0.12,Weather View 32 v70,2013-01-01 16:39:00,
2013-01-01 06:45:00,68.5,50.2,30.14,NE,48,9.0,17.0,52,0.00,,,0.12,Weather View 32 v70,2013-01-01 16:45:00,
2013-01-01 06:50:00,68.7,50.8,30.14,NE,53,4.0,17.0,53,0.00,,,0.12,Weather View 32 v70,2013-01-01 16:50:00,
2013-01-01 06:55:00,68.7,49.3,30.14,NE,50,11.0,17.0,50,0.00,,,0.12,Weather View 32 v70,2013-01-01 16:55:00,
2013-01-01 07:00:00,68.7,49.3,30.14,NE,35,2.0,15.0,50,0.00,,,0.12,Weather View 32 v70,2013-01-01 17:00:00,
2013-01-01 07:10:00,69.1,49.1,30.14,NNE,22,11.0,15.0,49,0.00,,,0.12,Weather View 32 v70,2013-01-01 17:10:00,
2013-01-01 07:15:00,69.1,49.6,30.14,NE,49,0.0,15.0,50,0.00,,,0.12,Weather View 32 v70,2013-01-01 17:15:00,
2013-01-01 07:20:00,68.9,48.3,30.14,North,7,8.0,15.0,48,0.00,,,0.12,Weather View 32 v70,2013-01-01 17:20:00,
2013-01-01 07:30:00,68.9,47.2,30.14,NE,54,10.0,15.0,46,0.00,,,0.12,Weather View 32 v70,2013-01-01 17:30:00,
2013-01-01 07:40:00,69.1,45.6,30.17,NE,51,9.0,15.0,43,0.00,,,0.12,Weather View 32 v70,2013-01-01 17:40:00,
2013-01-01 07:45:00,69.3,44.5,30.17,NNE,30,2.0,15.0,41,0.00,,,0.12,Weather View 32 v70,2013-01-01 17:45:00,
2013-01-01 07:50:00,69.4,44.0,30.17,North,357,11.0,15.0,40,0.00,,,0.12,Weather View 32 v70,2013-01-01 17:50:00,
2013-01-01 07:55:00,69.4,42.7,30.17,NNE,15,4.0,15.0,38,0.00,,,0.12,Weather View 32 v70,2013-01-01 17:55:00,
2013-01-01 08:05:00,69.6,43.5,30.17,NE,35,5.0,15.0,39,0.00,,,0.12,Weather View 32 v70,2013-01-01 18:05:00,
2013-01-01 08:10:00,69.6,41.4,30.17,NE,48,9.0,15.0,36,0.00,,,0.12,Weather View 32 v70,2013-01-01 18:10:00,
2013-01-01 08:15:00,69.6,40.7,30.17,North,357,5.0,15.0,35,0.00,,,0.12,Weather View 32 v70,2013-01-01 18:15:00,
2013-01-01 08:20:00,69.8,42.3,30.17,ENE,62,0.0,15.0,37,0.00,,,0.12,Weather View 32 v70,2013-01-01 18:20:00,
2013-01-01 08:30:00,69.8,41.6,30.17,ENE,57,6.0,14.0,36,0.00,,,0.12,Weather View 32 v70,2013-01-01 18:30:00,
2013-01-01 08:35:00,69.8,40.1,30.20,North,357,5.0,14.0,34,0.00,,,0.12,Weather View 32 v70,2013-01-01 18:35:00,
2013-01-01 08:40:00,69.8,40.8,30.20,NNE,32,8.0,14.0,35,0.00,,,0.12,Weather View 32 v70,2013-01-01 18:40:00,
2013-01-01 08:45:00,69.8,40.1,30.20,NNE,28,0.0,14.0,34,0.00,,,0.12,Weather View 32 v70,2013-01-01 18:45:00,
2013-01-01 08:55:00,70.0,39.5,30.20,NE,37,3.0,14.0,33,0.00,,,0.12,Weather View 32 v70,2013-01-01 18:55:00,
2013-01-01 09:00:00,70.0,39.5,30.20,NE,34,4.0,14.0,33,0.00,,,0.12,Weather View 32 v70,2013-01-01 19:00:00,
2013-01-01 09:05:00,70.0,39.5,30.20,NE,44,0.0,14.0,33,0.00,,,0.12,Weather View 32 v70,2013-01-01 19:05:00,
2013-01-01 09:10:00,70.0,39.5,30.20,NNE,20,7.0,13.0,33,0.00,,,0.12,Weather View 32 v70,2013-01-01 19:10:00,
2013-01-01 09:20:00,70.0,39.5,30.20,NE,34,0.0,12.0,33,0.00,,,0.12,Weather View 32 v70,2013-01-01 19:20:00,
2013-01-01 09:25:00,69.8,40.1,30.20,NE,52,0.0,12.0,34,0.00,,,0.12,Weather View 32 v70,2013-01-01 19:25:00,
2013-01-01 09:30:00,69.8,39.3,30.20,ENE,59,5.0,12.0,33,0.00,,,0.12,Weather View 32 v70,2013-01-01 19:30:00,
2013-01-01 09:35:00,70.0,39.5,30.20,NNE,18,5.0,10.0,33,0.00,,,0.12,Weather View 32 v70,2013-01-01 19:35:00,
2013-01-01 09:40:00,70.0,39.5,30.20,NE,55,0.0,10.0,33,0.00,,,0.12,Weather View 32 v70,2013-01-01 19:40:00,
2013-01-01 09:50:00,70.0,38.7,30.20,SE,136,0.0,10.0,32,0.00,,,0.12,Weather View 32 v70,2013-01-01 19:50:00,
2013-01-01 09:55:00,70.2,39.6,30.20,NE,53,0.0,9.0,33,0.00,,,0.12,Weather View 32 v70,2013-01-01 19:55:00,
2013-01-01 10:00:00,70.3,39.8,30.20,ENE,57,0.0,9.0,33,0.00,,,0.12,Weather View 32 v70,2013-01-01 20:00:00,
2013-01-01 10:05:00,70.3,39.0,30.20,NE,53,0.0,8.0,32,0.00,,,0.12,Weather View 32 v70,2013-01-01 20:05:00,
2013-01-01 10:15:00,70.5,40.0,30.20,ESE,108,0.0,8.0,33,0.00,,,0.12,Weather View 32 v70,2013-01-01 20:15:00,
2013-01-01 10:25:00,70.7,39.3,30.20,NE,48,0.0,8.0,32,0.00,,,0.12,Weather View 32 v70,2013-01-01 20:25:00,
2013-01-01 10:30:00,70.5,39.2,30.20,NE,41,0.0,8.0,32,0.00,,,0.12,Weather View 32 v70,2013-01-01 20:30:00,
2013-01-01 10:35:00,70.5,39.2,30.20,NE,56,0.0,8.0,32,0.00,,,0.12,Weather View 32 v70,2013-01-01 20:35:00,
2013-01-01 10:45:00,70.5,39.2,30.20,NE,36,0.0,8.0,32,0.00,,,0.12,Weather View 32 v70,2013-01-01 20:45:00,
2013-01-01 10:50:00,70.5,39.2,30.20,NE,55,0.0,9.0,32,0.00,,,0.12,Weather View 32 v70,2013-01-01 20:50:00,
2013-01-01 10:55:00,70.5,39.2,30.20,NNE,33,0.0,9.0,32,0.00,,,0.12,Weather View 32 v70,2013-01-01 20:55:00,
2013-01-01 11:00:00,70.5,39.2,30.20,NE,43,0.0,9.0,32,0.00,,,0.12,Weather View 32 v70,2013-01-01 21:00:00,
2013-01-01 11:10:00,70.7,39.3,30.20,ENE,72,0.0,11.0,32,0.00,,,0.12,Weather View 32 v70,2013-01-01 21:10:00,
2013-01-01 11:15:00,70.7,39.3,30.20,NE,45,5.0,11.0,32,0.00,,,0.12,Weather View 32 v70,2013-01-01 21:15:00,
2013-01-01 11:20:00,70.9,39.5,30.20,NE,39,8.0,11.0,32,0.00,,,0.12,Weather View 32 v70,2013-01-01 21:20:00,
2013-01-01 11:25:00,70.9,39.5,30.20,NE,38,6.0,11.0,32,0.00,,,0.12,Weather View 32 v70,2013-01-01 21:25:00,
2013-01-01 11:32:00,70.9,39.5,30.20,NE,42,4.0,11.0,32,0.00,,,0.12,Weather View 32 v70,2013-01-01 21:32:00,
2013-01-01 11:40:00,70.5,40.7,30.17,ENE,61,0.0,11.0,34,0.00,,,0.12,Weather View 32 v70,2013-01-01 21:40:00,
2013-01-01 11:50:00,70.0,39.5,30.17,ENE,61,0.0,11.0,33,0.00,,,0.12,Weather View 32 v70,2013-01-01 21:50:00,
2013-01-01 12:00:00,70.2,39.6,30.17,ENE,62,0.0,11.0,33,0.00,,,0.12,Weather View 32 v70,2013-01-01 22:00:00,
2013-01-01 12:05:00,70.3,39.0,30.17,NE,44,0.0,9.0,32,0.00,,,0.12,Weather View 32 v70,2013-01-01 22:05:00,
2013-01-01 12:14:00,70.5,39.2,30.17,East,82,0.0,8.0,32,0.00,,,0.12,Weather View 32 v70,2013-01-01 22:14:00,
2013-01-01 12:20:00,70.5,39.2,30.17,ENE,57,0.0,8.0,32,0.00,,,0.12,Weather View 32 v70,2013-01-01 22:20:00,
2013-01-01 12:25:00,70.5,39.2,30.17,East,89,0.0,8.0,32,0.00,,,0.12,Weather View 32 v70,2013-01-01 22:25:00,
2013-01-01 12:30:00,70.5,39.2,30.17,NNE,29,0.0,8.0,32,0.00,,,0.12,Weather View 32 v70,2013-01-01 22:30:00,
2013-01-01 12:35:00,70.5,39.2,30.17,NE,45,0.0,6.0,32,0.00,,,0.12,Weather View 32 v70,2013-01-01 22:35:00,
2013-01-01 12:45:00,70.7,39.3,30.17,ENE,71,0.0,10.0,32,0.00,,,0.12,Weather View 32 v70,2013-01-01 22:45:00,
2013-01-01 12:50:00,70.7,39.3,30.14,East,89,0.0,10.0,32,0.00,,,0.12,Weather View 32 v70,2013-01-01 22:50:00,
2013-01-01 12:55:00,70.9,39.5,30.14,NE,54,0.0,10.0,32,0.00,,,0.12,Weather View 32 v70,2013-01-01 22:55:00,
2013-01-01 13:00:00,70.7,39.3,30.14,ENE,74,0.0,10.0,32,0.00,,,0.12,Weather View 32 v70,2013-01-01 23:00:00,
2013-01-01 13:05:00,70.9,37.8,30.14,NE,49,0.0,10.0,30,0.00,,,0.12,Weather View 32 v70,2013-01-01 23:05:00,
2013-01-01 13:10:00,70.9,39.5,30.14,NE,37,0.0,10.0,32,0.00,,,0.12,Weather View 32 v70,2013-01-01 23:10:00,
2013-01-01 13:19:00,70.9,39.5,30.14,ENE,72,0.0,11.0,32,0.00,,,0.12,Weather View 32 v70,2013-01-01 23:19:00,
2013-01-01 13:25:00,70.9,37.8,30.14,East,88,0.0,11.0,30,0.00,,,0.12,Weather View 32 v70,2013-01-01 23:25:00,
2013-01-01 13:30:00,70.9,39.5,30.14,ENE,61,0.0,11.0,32,0.00,,,0.12,Weather View 32 v70,2013-01-01 23:30:00,
2013-01-01 13:35:00,70.9,38.7,30.11,East,90,9.0,11.0,31,0.00,,,0.12,Weather View 32 v70,2013-01-01 23:35:00,
2013-01-01 13:40:00,70.9,39.5,30.11,NNE,30,2.0,11.0,32,0.00,,,0.12,Weather View 32 v70,2013-01-01 23:40:00,
2013-01-01 13:50:00,71.1,37.1,30.11,East,82,0.0,11.0,29,0.00,,,0.12,Weather View 32 v70,2013-01-01 23:50:00,
2013-01-01 13:55:00,71.1,36.2,30.11,NE,44,0.0,11.0,28,0.00,,,0.12,Weather View 32 v70,2013-01-01 23:55:00,
2013-01-01 14:00:00,71.1,37.1,30.11,NE,54,0.0,11.0,29,0.00,,,0.12,Weather View 32 v70,2013-01-02 00:00:00,
2013-01-01 14:05:00,71.1,39.6,30.11,SE,134,0.0,11.0,32,0.00,,,0.12,Weather View 32 v70,2013-01-02 00:05:00,
2013-01-01 14:14:00,70.9,37.8,30.11,NE,37,0.0,11.0,30,0.00,,,0.12,Weather View 32 v70,2013-01-02 00:14:00,
2013-01-01 14:20:00,70.9,37.0,30.11,NE,36,6.0,11.0,29,0.00,,,0.12,Weather View 32 v70,2013-01-02 00:20:00,
2013-01-01 14:25:00,71.1,38.8,30.11,North,2,4.0,11.0,31,0.00,,,0.12,Weather View 32 v70,2013-01-02 00:25:00,
2013-01-01 14:30:00,71.1,38.8,30.11,NNE,23,0.0,11.0,31,0.00,,,0.12,Weather View 32 v70,2013-01-02 00:30:00,
2013-01-01 14:35:00,71.1,39.6,30.11,NE,46,0.0,11.0,32,0.00,,,0.12,Weather View 32 v70,2013-01-02 00:35:00,
2013-01-01 14:45:00,71.1,38.0,30.11,NE,48,0.0,11.0,30,0.00,,,0.12,Weather View 32 v70,2013-01-02 00:45:00,
2013-01-01 14:50:00,71.1,39.6,30.11,SE,129,0.0,11.0,32,0.00,,,0.12,Weather View 32 v70,2013-01-02 00:50:00,
2013-01-01 14:55:00,70.7,39.3,30.11,ENE,65,0.0,11.0,32,0.00,,,0.12,Weather View 32 v70,2013-01-02 00:55:00,
2013-01-01 15:00:00,70.5,39.2,30.11,East,86,0.0,11.0,32,0.00,,,0.12,Weather View 32 v70,2013-01-02 01:00:00,
2013-01-01 15:09:00,70.5,40.0,30.11,NE,46,0.0,11.0,33,0.00,,,0.12,Weather View 32 v70,2013-01-02 01:09:00,
2013-01-01 15:15:00,70.5,40.0,30.11,NNE,29,0.0,11.0,33,0.00,,,0.12,Weather View 32 v70,2013-01-02 01:15:00,
2013-01-01 15:20:00,70.7,40.1,30.11,NE,49,0.0,8.0,33,0.00,,,0.12,Weather View 32 v70,2013-01-02 01:20:00,
2013-01-01 15:25:00,70.5,40.0,30.11,North,1,0.0,4.0,33,0.00,,,0.12,Weather View 32 v70,2013-01-02 01:25:00,
2013-01-01 15:30:00,70.2,43.3,30.11,NE,55,0.0,0.0,38,0.00,,,0.12,Weather View 32 v70,2013-01-02 01:30:00,
2013-01-01 15:40:00,68.5,46.9,30.11,NE,49,0.0,0.0,46,0.00,,,0.12,Weather View 32 v70,2013-01-02 01:40:00,
2013-01-01 15:45:00,68.2,47.7,30.11,NNE,30,0.0,11.0,48,0.00,,,0.12,Weather View 32 v70,2013-01-02 01:45:00,
2013-01-01 15:50:00,67.8,48.5,30.11,East,84,0.0,11.0,50,0.00,,,0.12,Weather View 32 v70,2013-01-02 01:50:00,
2013-01-01 15:55:00,67.6,48.8,30.11,ENE,72,0.0,11.0,51,0.00,,,0.12,Weather View 32 v70,2013-01-02 01:55:00,
2013-01-01 16:05:00,67.5,48.1,30.11,NE,48,0.0,11.0,50,0.00,,,0.12,Weather View 32 v70,2013-01-02 02:05:00,
2013-01-01 16:10:00,67.6,48.8,30.11,ESE,109,0.0,11.0,51,0.00,,,0.12,Weather View 32 v70,2013-01-02 02:10:00,
2013-01-01 16:15:00,67.5,49.7,30.11,ENE,74,0.0,11.0,53,0.00,,,0.12,Weather View 32 v70,2013-01-02 02:15:00,
2013-01-01 16:20:00,67.3,50.0,30.14,South,191,0.0,11.0,54,0.00,,,0.12,Weather View 32 v70,2013-01-02 02:20:00,
2013-01-01 16:30:00,67.3,51.0,30.14,South,189,0.0,11.0,56,0.00,,,0.12,Weather View 32 v70,2013-01-02 02:30:00,
2013-01-01 16:35:00,67.3,51.0,30.11,South,190,0.0,11.0,56,0.00,,,0.12,Weather View 32 v70,2013-01-02 02:35:00,
2013-01-01 16:44:00,67.3,52.0,30.11,SSW,209,0.0,11.0,58,0.00,,,0.12,Weather View 32 v70,2013-01-02 02:44:00,
2013-01-01 16:49:00,67.1,52.3,30.11,WSW,243,0.0,11.0,59,0.00,,,0.12,Weather View 32 v70,2013-01-02 02:49:00,
2013-01-01 16:55:00,67.1,52.7,30.11,South,186,0.0,11.0,60,0.00,,,0.12,Weather View 32 v70,2013-01-02 02:55:00,
2013-01-01 17:00:00,66.9,53.4,30.11,SW,231,5.0,11.0,62,0.00,,,0.12,Weather View 32 v70,2013-01-02 03:00:00,
2013-01-01 17:05:00,66.7,53.7,30.11,WSW,256,0.0,11.0,63,0.00,,,0.12,Weather View 32 v70,2013-01-02 03:05:00,
2013-01-01 17:10:00,66.6,53.5,30.11,SW,227,0.0,11.0,63,0.00,,,0.12,Weather View 32 v70,2013-01-02 03:10:00,
2013-01-01 17:15:00,66.6,54.4,30.11,South,189,0.0,8.0,65,0.00,,,0.12,Weather View 32 v70,2013-01-02 03:15:00,
2013-01-01 17:25:00,66.4,55.1,30.11,WSW,253,0.0,8.0,67,0.00,,,0.12,Weather View 32 v70,2013-01-02 03:25:00,
2013-01-01 17:30:00,66.4,55.1,30.11,WSW,237,0.0,8.0,67,0.00,,,0.12,Weather View 32 v70,2013-01-02 03:30:00,
2013-01-01 17:35:00,66.4,55.1,30.14,SW,216,0.0,8.0,67,0.00,,,0.12,Weather View 32 v70,2013-01-02 03:35:00,
2013-01-01 17:44:00,66.2,54.9,30.14,SW,231,0.0,8.0,67,0.00,,,0.12,Weather View 32 v70,2013-01-02 03:44:00,
2013-01-01 17:50:00,66.2,54.9,30.14,WSW,240,0.0,8.0,67,0.00,,,0.12,Weather View 32 v70,2013-01-02 03:50:00,
2013-01-01 17:55:00,66.2,55.3,30.14,SSW,213,0.0,8.0,68,0.00,,,0.12,Weather View 32 v70,2013-01-02 03:55:00,
2013-01-01 18:00:00,66.0,55.1,30.14,SSW,194,0.0,8.0,68,0.00,,,0.12,Weather View 32 v70,2013-01-02 04:00:00,
2013-01-01 18:05:00,65.8,55.0,30.14,SSW,198,0.0,8.0,68,0.00,,,0.12,Weather View 32 v70,2013-01-02 04:05:00,
2013-01-01 18:15:00,65.7,55.2,30.14,SE,142,0.0,8.0,69,0.00,,,0.12,Weather View 32 v70,2013-01-02 04:15:00,
2013-01-01 18:20:00,65.7,56.0,30.14,WSW,246,0.0,8.0,71,0.04,,,0.16,Weather View 32 v70,2013-01-02 04:20:00,
2013-01-01 18:25:00,65.5,57.3,30.14,SSW,198,0.0,8.0,75,0.04,,,0.16,Weather View 32 v70,2013-01-02 04:25:00,
2013-01-01 18:30:00,65.1,58.1,30.14,South,191,0.0,8.0,78,0.04,,,0.16,Weather View 32 v70,2013-01-02 04:30:00,
2013-01-01 18:35:00,65.1,58.4,30.14,WSW,240,0.0,8.0,79,0.04,,,0.16,Weather View 32 v70,2013-01-02 04:35:00,
2013-01-01 18:45:00,64.9,59.3,30.14,SSW,197,0.0,8.0,82,0.04,,,0.16,Weather View 32 v70,2013-01-02 04:45:00,
2013-01-01 18:50:00,64.9,59.3,30.14,East,95,0.0,8.0,82,0.04,,,0.16,Weather View 32 v70,2013-01-02 04:50:00,
2013-01-01 18:55:00,64.9,59.6,30.14,ESE,110,0.0,8.0,83,0.04,,,0.16,Weather View 32 v70,2013-01-02 04:55:00,
2013-01-01 19:00:00,64.9,59.6,30.14,South,172,0.0,8.0,83,0.04,,,0.16,Weather View 32 v70,2013-01-02 05:00:00,
2013-01-01 19:04:00,64.9,60.0,30.14,SSW,206,0.0,8.0,84,0.04,,,0.16,Weather View 32 v70,2013-01-02 05:04:00,
2013-01-01 19:09:00,65.1,60.5,30.14,SSE,167,0.0,8.0,85,0.04,,,0.16,Weather View 32 v70,2013-01-02 05:09:00,
2013-01-01 19:15:00,64.9,60.3,30.14,South,171,0.0,8.0,85,0.04,,,0.16,Weather View 32 v70,2013-01-02 05:15:00,
2013-01-01 19:20:00,64.9,60.6,30.14,South,181,0.0,3.0,86,0.04,,,0.20,Weather View 32 v70,2013-01-02 05:20:00,
2013-01-01 19:25:00,65.1,61.1,30.14,South,182,0.0,4.0,87,0.04,,,0.20,Weather View 32 v70,2013-01-02 05:25:00,
2013-01-01 19:30:00,65.1,61.5,30.14,SE,130,0.0,4.0,88,0.04,,,0.20,Weather View 32 v70,2013-01-02 05:30:00,
2013-01-01 19:35:00,65.1,61.5,30.17,South,171,0.0,4.0,88,0.04,,,0.20,Weather View 32 v70,2013-01-02 05:35:00,
2013-01-01 19:44:00,65.1,61.8,30.17,SW,216,0.0,4.0,89,0.08,,,0.24,Weather View 32 v70,2013-01-02 05:44:00,
2013-01-01 19:50:00,65.1,62.1,30.17,South,178,0.0,4.0,90,0.08,,,0.24,Weather View 32 v70,2013-01-02 05:50:00,
2013-01-01 19:55:00,65.1,62.1,30.17,SW,225,0.0,4.0,90,0.08,,,0.24,Weather View 32 v70,2013-01-02 05:55:00,
2013-01-01 20:00:00,65.1,62.4,30.17,South,173,0.0,4.0,91,0.08,,,0.24,Weather View 32 v70,2013-01-02 06:00:00,
2013-01-01 20:10:00,65.1,62.7,30.17,SSW,201,0.0,4.0,92,0.08,,,0.24,Weather View 32 v70,2013-01-02 06:10:00,
2013-01-01 20:19:00,65.1,62.7,30.14,SSE,163,0.0,4.0,92,0.04,,,0.24,Weather View 32 v70,2013-01-02 06:19:00,
2013-01-01 20:25:00,65.1,63.0,30.14,South,176,0.0,0.0,93,0.04,,,0.24,Weather View 32 v70,2013-01-02 06:25:00,
2013-01-01 20:30:00,65.1,63.0,30.14,SSE,156,0.0,0.0,93,0.04,,,0.24,Weather View 32 v70,2013-01-02 06:30:00,
2013-01-01 20:35:00,65.1,63.0,30.17,East,86,0.0,0.0,93,0.04,,,0.24,Weather View 32 v70,2013-01-02 06:35:00,
2013-01-01 20:40:00,65.1,63.0,30.17,South,183,0.0,0.0,93,0.00,,,0.24,Weather View 32 v70,2013-01-02 06:40:00,
2013-01-01 20:45:00,65.1,63.0,30.17,SSW,202,0.0,0.0,93,0.00,,,0.24,Weather View 32 v70,2013-01-02 06:45:00,
2013-01-01 20:50:00,65.1,63.3,30.17,SW,229,0.0,0.0,94,0.00,,,0.24,Weather View 32 v70,2013-01-02 06:50:00,
2013-01-01 20:59:00,65.1,63.6,30.17,SE,129,0.0,0.0,95,0.00,,,0.24,Weather View 32 v70,2013-01-02 06:59:00,
2013-01-01 21:05:00,65.1,63.9,30.17,South,189,0.0,4.0,96,0.00,,,0.24,Weather View 32 v70,2013-01-02 07:05:00,
2013-01-01 21:10:00,65.1,63.9,30.17,SW,226,0.0,4.0,96,0.00,,,0.24,Weather View 32 v70,2013-01-02 07:10:00,
2013-01-01 21:15:00,65.1,63.9,30.17,South,170,0.0,4.0,96,0.00,,,0.24,Weather View 32 v70,2013-01-02 07:15:00,
2013-01-01 21:25:00,65.1,64.2,30.17,SSW,199,0.0,4.0,97,0.00,,,0.24,Weather View 32 v70,2013-01-02 07:25:00,
2013-01-01 21:34:00,65.3,64.4,30.17,SSE,149,0.0,4.0,97,0.04,,,0.28,Weather View 32 v70,2013-01-02 07:34:00,
2013-01-01 21:40:00,65.3,64.4,30.17,SSE,149,0.0,4.0,97,0.04,,,0.28,Weather View 32 v70,2013-01-02 07:40:00,
2013-01-01 21:45:00,65.3,64.4,30.17,ESE,102,0.0,4.0,97,0.04,,,0.28,Weather View 32 v70,2013-01-02 07:45:00,
2013-01-01 21:50:00,65.3,64.4,30.17,SSW,207,0.0,4.0,97,0.04,,,0.28,Weather View 32 v70,2013-01-02 07:50:00,
2013-01-01 21:55:00,65.3,64.4,30.17,South,171,0.0,4.0,97,0.04,,,0.28,Weather View 32 v70,2013-01-02 07:55:00,
2013-01-01 22:00:00,65.3,64.4,30.17,SSW,193,0.0,4.0,97,0.04,,,0.28,Weather View 32 v70,2013-01-02 08:00:00,
2013-01-01 22:09:00,65.5,64.6,30.17,ENE,65,0.0,0.0,97,0.04,,,0.28,Weather View 32 v70,2013-01-02 08:09:00,
2013-01-01 22:14:00,65.8,65.0,30.17,ENE,75,0.0,8.0,97,0.04,,,0.28,Weather View 32 v70,2013-01-02 08:14:00,
2013-01-01 22:20:00,66.4,65.5,30.17,SSE,152,0.0,8.0,97,0.04,,,0.28,Weather View 32 v70,2013-01-02 08:20:00,
2013-01-01 22:25:00,66.6,65.7,30.17,North,0,0.0,8.0,97,0.04,,,0.28,Weather View 32 v70,2013-01-02 08:25:00,
2013-01-01 22:30:00,66.7,65.9,30.17,SSE,147,0.0,8.0,97,0.00,,,0.28,Weather View 32 v70,2013-01-02 08:30:00,
2013-01-01 22:35:00,66.7,65.9,30.17,SE,145,0.0,8.0,97,0.00,,,0.28,Weather View 32 v70,2013-01-02 08:35:00,
2013-01-01 22:40:00,66.9,65.7,30.17,SE,136,5.0,8.0,96,0.00,,,0.28,Weather View 32 v70,2013-01-02 08:40:00,
2013-01-01 22:45:00,66.7,63.7,30.17,SSE,157,0.0,8.0,90,0.00,,,0.28,Weather View 32 v70,2013-01-02 08:45:00,
2013-01-01 22:50:00,66.9,63.2,30.14,ESE,105,0.0,8.0,88,0.00,,,0.28,Weather View 32 v70,2013-01-02 08:50:00,
2013-01-01 22:55:00,67.1,62.1,30.14,SE,140,0.0,10.0,84,0.00,,,0.28,Weather View 32 v70,2013-01-02 08:55:00,
2013-01-01 23:04:00,67.5,57.3,30.14,SE,141,6.0,10.0,70,0.00,,,0.28,Weather View 32 v70,2013-01-02 09:04:00,
2013-01-01 23:09:00,67.8,53.8,30.14,East,83,0.0,10.0,61,0.00,,,0.28,Weather View 32 v70,2013-01-02 09:09:00,
2013-01-01 23:14:00,68.2,51.8,30.14,South,190,0.0,12.0,56,0.00,,,0.28,Weather View 32 v70,2013-01-02 09:14:00,
2013-01-01 23:20:00,68.4,52.0,30.14,ESE,111,0.0,12.0,56,0.00,,,0.28,Weather View 32 v70,2013-01-02 09:20:00,
2013-01-01 23:25:00,68.4,49.5,30.14,SE,140,0.0,12.0,51,0.00,,,0.28,Weather View 32 v70,2013-01-02 09:25:00,
2013-01-01 23:30:00,68.5,47.5,30.14,ESE,119,0.0,15.0,47,0.00,,,0.28,Weather View 32 v70,2013-01-02 09:30:00,
2013-01-01 23:35:00,68.7,47.0,30.14,ESE,117,6.0,15.0,46,0.00,,,0.28,Weather View 32 v70,2013-01-02 09:35:00,
2013-01-01 23:40:00,68.9,47.2,30.14,NE,49,0.0,15.0,46,0.00,,,0.28,Weather View 32 v70,2013-01-02 09:40:00,
2013-01-01 23:45:00,68.9,46.6,30.14,East,99,0.0,15.0,45,0.00,,,0.28,Weather View 32 v70,2013-01-02 09:45:00,
2013-01-01 23:50:00,68.9,46.0,30.14,NE,45,2.0,15.0,44,0.00,,,0.28,Weather View 32 v70,2013-01-02 09:50:00,